Pukwana, SD (57370)

5:21 PM CDT on July 28, 2016 (GMT -0500)
Chamberlain | | Change Station

Elev 1693 ft 43.77 °N, 99.32 °W | Updated 6 minutes ago

Mostly Cloudy
Mostly Cloudy
82 °F
Feels Like 82 °F
N
5
Wind Variable Wind from NNE

Today
High -- | Low -- °F
--% Chance of Precip.
Yesterday
High -- | Low -- °F
Precip. -- in
Pressure 30.04 in
Visibility 10.0 miles
Clouds Scattered Clouds 7000 ft
Scattered Clouds 8000 ft
Mostly Cloudy 9500 ft
Heat Index 82 °F
Dew Point 58 °F
Humidity 45%
Rainfall 0.00 in
Snow Depth Not available.
6:21 AM 9:03 PM
Waning Crescent, 28% visible
METAR K9V9 282215Z AUTO 03004KT 10SM SCT070 SCT080 BKN095 28/15 A3004 RMK AO2 T02770147
Pressure 30.04 in
Visibility 10.0 miles
Clouds Scattered Clouds 7000 ft
Scattered Clouds 8000 ft
Mostly Cloudy 9500 ft
Heat Index 82 °F
Dew Point 58 °F
Humidity 45%
Rainfall 0.00 in
Snow Depth Not available.
6:21 AM 9:03 PM
Waning Crescent, 28% visible
METAR K9V9 282215Z AUTO 03004KT 10SM SCT070 SCT080 BKN095 28/15 A3004 RMK AO2 T02770147

10-Day Weather Forecast

Almanac

Astronomy

Jul. 28, 2016 Rise Set
Actual Time
Civil Twilight
Nautical Twilight
Astronomical Twilight
Moon
Length of Visible Light
Length of Day
Tomorrow will be .
, % of the Moon is Illuminated

Today's Extremes

State Highs State Lows

Community

WunderPhotos

Upload Photos

1,928,220 photos uploaded!

WunderBlog® & News

Nearby

Air Quality

  Air Quality AQ Index Pollutant
Not available.

Snow Depth

Station Depth Elevation

Earthquake Activity

City Distance Mag. Time & Date
Minimum magnitude displayed is 2.5.

Coastal Water Temperatures

Place Temperature

Stations

Nearby Weather Stations

Station Location Temp. Windchill Dew Point Humidity Wind Precip. Elev Updated Type
                   

Watches & Warnings

There are currently no watches in effect.